Sainte Genevieve, Missouri
Current Conditions -  °F | °C
As of 9:35 AM on Monday 22 Dec 2014 (Local Time) from KSAR Reporting Station
Light Rain Light Rain  
Wind Chill:   Ceiling: 600
Heat Index:   Visibility: 7mi
Dew Point:   Wind: 8mph
Humidity: 96%   Direction: 140°SE
Pressure: 29.78"   Gusts: NA
Location:  37.98°N, 90.04°W
Report Text: KSAR 221535Z AUTO 14007KT 7SM -RA OVC006 06/05 A2978 RMK AO2 T00560050
Loading
Personal Weather Stations






























Interactive Weather Map New forecast layout! Learn more

10-Day Weather Forecast

Advertisements
Track Severe Weather on mobile